sensor_id;sensor_type;location;lat;lon;timestamp;temperature;humidity
55213;DHT22;41083;52.932;6.674;2024-03-17T00:01:45;5.60;99.90
55213;DHT22;41083;52.932;6.674;2024-03-17T00:04:11;5.50;99.90
55213;DHT22;41083;52.932;6.674;2024-03-17T00:06:36;5.50;99.90
55213;DHT22;41083;52.932;6.674;2024-03-17T00:09:02;5.50;99.90
55213;DHT22;41083;52.932;6.674;2024-03-17T00:11:32;5.50;99.90
55213;DHT22;41083;52.932;6.674;2024-03-17T00:13:58;5.50;99.90
55213;DHT22;41083;52.932;6.674;2024-03-17T00:16:24;5.50;99.90
55213;DHT22;41083;52.932;6.674;2024-03-17T00:18:49;5.50;99.90
55213;DHT22;41083;52.932;6.674;2024-03-17T00:21:15;5.50;99.90
55213;DHT22;41083;52.932;6.674;2024-03-17T00:23:41;5.40;99.90
55213;DHT22;41083;52.932;6.674;2024-03-17T00:26:07;5.40;99.90
55213;DHT22;41083;52.932;6.674;2024-03-17T00:28:33;5.30;99.90
55213;DHT22;41083;52.932;6.674;2024-03-17T00:30:59;5.30;99.90
55213;DHT22;41083;52.932;6.674;2024-03-17T00:33:24;5.30;99.90
55213;DHT22;41083;52.932;6.674;2024-03-17T00:35:50;5.30;99.90
55213;DHT22;41083;52.932;6.674;2024-03-17T00:38:16;5.20;99.90
55213;DHT22;41083;52.932;6.674;2024-03-17T00:40:42;5.20;99.90
55213;DHT22;41083;52.932;6.674;2024-03-17T00:43:10;5.20;99.90
55213;DHT22;41083;52.932;6.674;2024-03-17T00:45:37;5.10;99.90
55213;DHT22;41083;52.932;6.674;2024-03-17T00:48:03;5.10;99.90
55213;DHT22;41083;52.932;6.674;2024-03-17T00:50:28;5.10;99.90
55213;DHT22;41083;52.932;6.674;2024-03-17T00:52:54;5.10;99.90
55213;DHT22;41083;52.932;6.674;2024-03-17T00:55:20;5.10;99.90
55213;DHT22;41083;52.932;6.674;2024-03-17T00:57:45;5.10;99.90
55213;DHT22;41083;52.932;6.674;2024-03-17T01:00:11;5.10;99.90
55213;DHT22;41083;52.932;6.674;2024-03-17T01:02:37;5.00;99.90
55213;DHT22;41083;52.932;6.674;2024-03-17T01:05:03;5.00;99.90
55213;DHT22;41083;52.932;6.674;2024-03-17T01:07:33;5.00;99.90
55213;DHT22;41083;52.932;6.674;2024-03-17T01:09:59;4.90;99.90
55213;DHT22;41083;52.932;6.674;2024-03-17T01:12:26;4.90;99.90
55213;DHT22;41083;52.932;6.674;2024-03-17T01:14:51;4.90;99.90
55213;DHT22;41083;52.932;6.674;2024-03-17T01:17:17;5.00;99.90
55213;DHT22;41083;52.932;6.674;2024-03-17T01:19:44;4.90;99.90
55213;DHT22;41083;52.932;6.674;2024-03-17T01:22:10;4.90;99.90
55213;DHT22;41083;52.932;6.674;2024-03-17T01:24:36;4.90;99.90
55213;DHT22;41083;52.932;6.674;2024-03-17T01:27:02;4.90;99.90
55213;DHT22;41083;52.932;6.674;2024-03-17T01:29:28;4.80;99.90
55213;DHT22;41083;52.932;6.674;2024-03-17T01:31:54;4.80;99.90
55213;DHT22;41083;52.932;6.674;2024-03-17T01:34:21;4.90;99.90
55213;DHT22;41083;52.932;6.674;2024-03-17T01:36:47;4.90;99.90
55213;DHT22;41083;52.932;6.674;2024-03-17T01:39:13;4.90;99.90
55213;DHT22;41083;52.932;6.674;2024-03-17T01:41:39;4.80;99.90
55213;DHT22;41083;52.932;6.674;2024-03-17T01:44:05;4.80;99.90
55213;DHT22;41083;52.932;6.674;2024-03-17T01:46:31;4.80;99.90
55213;DHT22;41083;52.932;6.674;2024-03-17T01:48:56;4.80;99.90
55213;DHT22;41083;52.932;6.674;2024-03-17T01:51:23;4.80;99.90
55213;DHT22;41083;52.932;6.674;2024-03-17T01:53:50;4.80;99.90
55213;DHT22;41083;52.932;6.674;2024-03-17T01:56:16;4.70;99.90
55213;DHT22;41083;52.932;6.674;2024-03-17T01:58:45;4.70;99.90
55213;DHT22;41083;52.932;6.674;2024-03-17T02:01:12;4.70;99.90
55213;DHT22;41083;52.932;6.674;2024-03-17T02:03:41;4.70;99.90
55213;DHT22;41083;52.932;6.674;2024-03-17T02:06:08;4.60;99.90
55213;DHT22;41083;52.932;6.674;2024-03-17T02:08:51;4.60;99.90
55213;DHT22;41083;52.932;6.674;2024-03-17T02:11:35;4.60;99.90
55213;DHT22;41083;52.932;6.674;2024-03-17T02:14:01;4.50;99.90
55213;DHT22;41083;52.932;6.674;2024-03-17T02:16:27;4.50;99.90
55213;DHT22;41083;52.932;6.674;2024-03-17T02:18:56;4.50;99.90
55213;DHT22;41083;52.932;6.674;2024-03-17T02:21:23;4.40;99.90
55213;DHT22;41083;52.932;6.674;2024-03-17T02:23:53;4.40;99.90
55213;DHT22;41083;52.932;6.674;2024-03-17T02:26:19;4.40;99.90
55213;DHT22;41083;52.932;6.674;2024-03-17T02:28:46;4.40;99.90
55213;DHT22;41083;52.932;6.674;2024-03-17T02:31:14;4.40;99.90
55213;DHT22;41083;52.932;6.674;2024-03-17T02:33:41;4.30;99.90
55213;DHT22;41083;52.932;6.674;2024-03-17T02:36:07;4.30;99.90
55213;DHT22;41083;52.932;6.674;2024-03-17T02:38:34;4.30;99.90
55213;DHT22;41083;52.932;6.674;2024-03-17T02:41:19;4.30;99.90
55213;DHT22;41083;52.932;6.674;2024-03-17T02:43:45;4.30;99.90
55213;DHT22;41083;52.932;6.674;2024-03-17T02:46:12;4.20;99.90
55213;DHT22;41083;52.932;6.674;2024-03-17T02:48:39;4.20;99.90
55213;DHT22;41083;52.932;6.674;2024-03-17T02:51:11;4.20;99.90
55213;DHT22;41083;52.932;6.674;2024-03-17T02:53:38;4.20;99.90
55213;DHT22;41083;52.932;6.674;2024-03-17T02:56:05;4.20;99.90
55213;DHT22;41083;52.932;6.674;2024-03-17T02:58:33;4.30;99.90
55213;DHT22;41083;52.932;6.674;2024-03-17T03:00:59;4.30;99.90
55213;DHT22;41083;52.932;6.674;2024-03-17T03:03:25;4.30;99.90
55213;DHT22;41083;52.932;6.674;2024-03-17T03:05:50;4.30;99.90
55213;DHT22;41083;52.932;6.674;2024-03-17T03:08:17;4.30;99.90
55213;DHT22;41083;52.932;6.674;2024-03-17T03:10:47;4.30;99.90
55213;DHT22;41083;52.932;6.674;2024-03-17T03:13:12;4.30;99.90
55213;DHT22;41083;52.932;6.674;2024-03-17T03:15:38;4.20;99.90
55213;DHT22;41083;52.932;6.674;2024-03-17T03:18:04;4.20;99.90
55213;DHT22;41083;52.932;6.674;2024-03-17T03:20:30;4.20;99.90
55213;DHT22;41083;52.932;6.674;2024-03-17T03:22:55;4.20;99.90
55213;DHT22;41083;52.932;6.674;2024-03-17T03:25:21;4.10;99.90
55213;DHT22;41083;52.932;6.674;2024-03-17T03:27:47;4.10;99.90
55213;DHT22;41083;52.932;6.674;2024-03-17T03:30:13;4.10;99.90
55213;DHT22;41083;52.932;6.674;2024-03-17T03:32:41;4.10;99.90
55213;DHT22;41083;52.932;6.674;2024-03-17T03:35:08;4.00;99.90
55213;DHT22;41083;52.932;6.674;2024-03-17T03:37:34;4.00;99.90
55213;DHT22;41083;52.932;6.674;2024-03-17T03:40:00;4.00;99.90
55213;DHT22;41083;52.932;6.674;2024-03-17T03:42:25;3.90;99.90
55213;DHT22;41083;52.932;6.674;2024-03-17T03:44:51;3.90;99.90
55213;DHT22;41083;52.932;6.674;2024-03-17T03:47:17;3.90;99.90
55213;DHT22;41083;52.932;6.674;2024-03-17T03:49:43;3.90;99.90
55213;DHT22;41083;52.932;6.674;2024-03-17T03:52:10;3.90;99.90
55213;DHT22;41083;52.932;6.674;2024-03-17T03:54:36;3.90;99.90
55213;DHT22;41083;52.932;6.674;2024-03-17T03:57:02;3.90;99.90
55213;DHT22;41083;52.932;6.674;2024-03-17T03:59:28;3.90;99.90
55213;DHT22;41083;52.932;6.674;2024-03-17T04:01:54;3.90;99.90
55213;DHT22;41083;52.932;6.674;2024-03-17T04:04:20;4.00;99.90
55213;DHT22;41083;52.932;6.674;2024-03-17T04:06:45;4.00;99.90
55213;DHT22;41083;52.932;6.674;2024-03-17T04:09:12;4.00;99.90
55213;DHT22;41083;52.932;6.674;2024-03-17T04:11:38;4.10;99.90
55213;DHT22;41083;52.932;6.674;2024-03-17T04:14:03;4.10;99.90
55213;DHT22;41083;52.932;6.674;2024-03-17T04:16:30;4.20;99.90
55213;DHT22;41083;52.932;6.674;2024-03-17T04:18:57;4.20;99.90
55213;DHT22;41083;52.932;6.674;2024-03-17T04:21:23;4.20;99.90
55213;DHT22;41083;52.932;6.674;2024-03-17T04:23:48;4.20;99.90
55213;DHT22;41083;52.932;6.674;2024-03-17T04:26:14;4.20;99.90
55213;DHT22;41083;52.932;6.674;2024-03-17T04:28:40;4.20;99.90
55213;DHT22;41083;52.932;6.674;2024-03-17T04:31:06;4.20;99.90
55213;DHT22;41083;52.932;6.674;2024-03-17T04:33:32;4.30;99.90
55213;DHT22;41083;52.932;6.674;2024-03-17T04:35:58;4.30;99.90
55213;DHT22;41083;52.932;6.674;2024-03-17T04:38:24;4.30;99.90
55213;DHT22;41083;52.932;6.674;2024-03-17T04:40:50;4.40;99.90
55213;DHT22;41083;52.932;6.674;2024-03-17T04:43:17;4.40;99.90
55213;DHT22;41083;52.932;6.674;2024-03-17T04:45:42;4.40;99.90
55213;DHT22;41083;52.932;6.674;2024-03-17T04:48:10;4.40;99.90
55213;DHT22;41083;52.932;6.674;2024-03-17T04:50:35;4.40;99.90
55213;DHT22;41083;52.932;6.674;2024-03-17T04:53:01;4.30;99.90
55213;DHT22;41083;52.932;6.674;2024-03-17T04:55:27;4.40;99.90
55213;DHT22;41083;52.932;6.674;2024-03-17T04:57:52;4.30;99.90
55213;DHT22;41083;52.932;6.674;2024-03-17T05:00:18;4.40;99.90
55213;DHT22;41083;52.932;6.674;2024-03-17T05:02:44;4.40;99.90
55213;DHT22;41083;52.932;6.674;2024-03-17T05:05:11;4.50;99.90
55213;DHT22;41083;52.932;6.674;2024-03-17T05:07:37;4.50;99.90
55213;DHT22;41083;52.932;6.674;2024-03-17T05:10:04;4.60;99.90
55213;DHT22;41083;52.932;6.674;2024-03-17T05:12:29;4.60;99.90
55213;DHT22;41083;52.932;6.674;2024-03-17T05:14:55;4.60;99.90
55213;DHT22;41083;52.932;6.674;2024-03-17T05:17:21;4.60;99.90
55213;DHT22;41083;52.932;6.674;2024-03-17T05:19:46;4.60;99.90
55213;DHT22;41083;52.932;6.674;2024-03-17T05:22:12;4.70;99.90
55213;DHT22;41083;52.932;6.674;2024-03-17T05:24:38;4.70;99.90
55213;DHT22;41083;52.932;6.674;2024-03-17T05:27:03;4.70;99.90
55213;DHT22;41083;52.932;6.674;2024-03-17T05:29:29;4.80;99.90
55213;DHT22;41083;52.932;6.674;2024-03-17T05:31:55;4.80;99.90
55213;DHT22;41083;52.932;6.674;2024-03-17T05:34:21;4.80;99.90
55213;DHT22;41083;52.932;6.674;2024-03-17T05:36:50;4.90;99.90
55213;DHT22;41083;52.932;6.674;2024-03-17T05:39:16;4.90;99.90
55213;DHT22;41083;52.932;6.674;2024-03-17T05:41:42;4.90;99.90
55213;DHT22;41083;52.932;6.674;2024-03-17T05:44:09;4.90;99.90
55213;DHT22;41083;52.932;6.674;2024-03-17T05:46:35;5.00;99.90
55213;DHT22;41083;52.932;6.674;2024-03-17T05:49:00;5.00;99.90
55213;DHT22;41083;52.932;6.674;2024-03-17T05:51:26;5.00;99.90
55213;DHT22;41083;52.932;6.674;2024-03-17T05:53:53;5.00;99.90
55213;DHT22;41083;52.932;6.674;2024-03-17T05:56:21;5.00;99.90
55213;DHT22;41083;52.932;6.674;2024-03-17T05:58:48;5.10;99.90
55213;DHT22;41083;52.932;6.674;2024-03-17T06:01:14;5.10;99.90
55213;DHT22;41083;52.932;6.674;2024-03-17T06:03:40;5.10;99.90
55213;DHT22;41083;52.932;6.674;2024-03-17T06:06:07;5.10;99.90
55213;DHT22;41083;52.932;6.674;2024-03-17T06:08:37;5.10;99.90
55213;DHT22;41083;52.932;6.674;2024-03-17T06:11:03;5.10;99.90
55213;DHT22;41083;52.932;6.674;2024-03-17T06:13:30;5.10;99.90
55213;DHT22;41083;52.932;6.674;2024-03-17T06:15:55;5.10;99.90
55213;DHT22;41083;52.932;6.674;2024-03-17T06:18:26;5.20;99.90
55213;DHT22;41083;52.932;6.674;2024-03-17T06:20:52;5.20;99.90
55213;DHT22;41083;52.932;6.674;2024-03-17T06:23:17;5.20;99.90
55213;DHT22;41083;52.932;6.674;2024-03-17T06:25:45;5.20;99.90
55213;DHT22;41083;52.932;6.674;2024-03-17T06:28:15;5.20;99.90
55213;DHT22;41083;52.932;6.674;2024-03-17T06:30:42;5.20;99.90
55213;DHT22;41083;52.932;6.674;2024-03-17T06:33:12;5.20;99.90
55213;DHT22;41083;52.932;6.674;2024-03-17T06:35:38;5.30;99.90
55213;DHT22;41083;52.932;6.674;2024-03-17T06:38:04;5.30;99.90
55213;DHT22;41083;52.932;6.674;2024-03-17T06:40:30;5.30;99.90
55213;DHT22;41083;52.932;6.674;2024-03-17T06:42:56;5.40;99.90
55213;DHT22;41083;52.932;6.674;2024-03-17T06:45:22;5.40;99.90
55213;DHT22;41083;52.932;6.674;2024-03-17T06:47:49;5.40;99.90
55213;DHT22;41083;52.932;6.674;2024-03-17T06:50:15;5.50;99.90
55213;DHT22;41083;52.932;6.674;2024-03-17T06:52:41;5.50;99.90
55213;DHT22;41083;52.932;6.674;2024-03-17T06:55:07;5.50;99.90
55213;DHT22;41083;52.932;6.674;2024-03-17T06:57:33;5.60;99.90
55213;DHT22;41083;52.932;6.674;2024-03-17T07:00:00;5.60;99.90
55213;DHT22;41083;52.932;6.674;2024-03-17T07:02:25;5.60;99.90
55213;DHT22;41083;52.932;6.674;2024-03-17T07:04:51;5.70;99.90
55213;DHT22;41083;52.932;6.674;2024-03-17T07:07:17;5.70;99.90
55213;DHT22;41083;52.932;6.674;2024-03-17T07:09:42;5.70;99.90
55213;DHT22;41083;52.932;6.674;2024-03-17T07:12:09;5.70;99.90
55213;DHT22;41083;52.932;6.674;2024-03-17T07:14:36;5.80;99.90
55213;DHT22;41083;52.932;6.674;2024-03-17T07:17:02;5.80;99.90
55213;DHT22;41083;52.932;6.674;2024-03-17T07:19:28;5.80;99.90
55213;DHT22;41083;52.932;6.674;2024-03-17T07:21:54;5.90;99.90
55213;DHT22;41083;52.932;6.674;2024-03-17T07:24:20;5.90;99.90
55213;DHT22;41083;52.932;6.674;2024-03-17T07:26:50;5.90;99.90
55213;DHT22;41083;52.932;6.674;2024-03-17T07:29:16;6.00;99.90
55213;DHT22;41083;52.932;6.674;2024-03-17T07:31:41;6.00;99.90
55213;DHT22;41083;52.932;6.674;2024-03-17T07:34:07;6.10;99.90
55213;DHT22;41083;52.932;6.674;2024-03-17T07:36:33;6.10;99.90
55213;DHT22;41083;52.932;6.674;2024-03-17T07:38:58;6.20;99.90
55213;DHT22;41083;52.932;6.674;2024-03-17T07:41:24;6.20;99.90
55213;DHT22;41083;52.932;6.674;2024-03-17T07:43:50;6.30;99.90
55213;DHT22;41083;52.932;6.674;2024-03-17T07:46:16;6.30;99.90
55213;DHT22;41083;52.932;6.674;2024-03-17T07:48:43;6.30;99.90
55213;DHT22;41083;52.932;6.674;2024-03-17T07:51:13;6.40;99.90
55213;DHT22;41083;52.932;6.674;2024-03-17T07:53:40;6.40;99.90
55213;DHT22;41083;52.932;6.674;2024-03-17T07:56:11;6.40;99.90
55213;DHT22;41083;52.932;6.674;2024-03-17T07:58:38;6.40;99.90
55213;DHT22;41083;52.932;6.674;2024-03-17T08:01:06;6.50;99.90
55213;DHT22;41083;52.932;6.674;2024-03-17T08:03:34;6.50;99.90
55213;DHT22;41083;52.932;6.674;2024-03-17T08:06:01;6.60;99.90
55213;DHT22;41083;52.932;6.674;2024-03-17T08:08:28;6.60;99.90
55213;DHT22;41083;52.932;6.674;2024-03-17T08:10:54;6.60;99.90
55213;DHT22;41083;52.932;6.674;2024-03-17T08:13:21;6.70;99.90
55213;DHT22;41083;52.932;6.674;2024-03-17T08:15:54;6.70;99.90
55213;DHT22;41083;52.932;6.674;2024-03-17T08:18:20;6.70;99.90
55213;DHT22;41083;52.932;6.674;2024-03-17T08:20:46;6.70;99.90
55213;DHT22;41083;52.932;6.674;2024-03-17T08:23:14;6.70;99.90
55213;DHT22;41083;52.932;6.674;2024-03-17T08:25:40;6.80;99.90
55213;DHT22;41083;52.932;6.674;2024-03-17T08:28:06;6.80;99.90
55213;DHT22;41083;52.932;6.674;2024-03-17T08:30:34;6.80;99.90
55213;DHT22;41083;52.932;6.674;2024-03-17T08:33:01;6.90;99.90
55213;DHT22;41083;52.932;6.674;2024-03-17T08:35:26;6.90;99.90
55213;DHT22;41083;52.932;6.674;2024-03-17T08:37:52;6.90;99.90
55213;DHT22;41083;52.932;6.674;2024-03-17T08:40:20;7.00;99.90
55213;DHT22;41083;52.932;6.674;2024-03-17T08:42:46;7.00;99.90
55213;DHT22;41083;52.932;6.674;2024-03-17T08:45:12;7.10;99.90
55213;DHT22;41083;52.932;6.674;2024-03-17T08:47:38;7.10;99.90
55213;DHT22;41083;52.932;6.674;2024-03-17T08:50:05;7.10;99.90
55213;DHT22;41083;52.932;6.674;2024-03-17T08:52:33;7.10;99.90
55213;DHT22;41083;52.932;6.674;2024-03-17T08:54:59;7.20;99.90
55213;DHT22;41083;52.932;6.674;2024-03-17T08:57:25;7.20;99.90
55213;DHT22;41083;52.932;6.674;2024-03-17T08:59:51;7.20;99.90
55213;DHT22;41083;52.932;6.674;2024-03-17T09:02:18;7.30;99.90
55213;DHT22;41083;52.932;6.674;2024-03-17T09:04:46;7.30;99.90
55213;DHT22;41083;52.932;6.674;2024-03-17T09:07:12;7.40;99.90
55213;DHT22;41083;52.932;6.674;2024-03-17T09:09:41;7.40;99.90
55213;DHT22;41083;52.932;6.674;2024-03-17T09:12:07;7.50;99.90
55213;DHT22;41083;52.932;6.674;2024-03-17T09:14:32;7.50;99.90
55213;DHT22;41083;52.932;6.674;2024-03-17T09:16:58;7.50;99.90
55213;DHT22;41083;52.932;6.674;2024-03-17T09:19:24;7.60;99.90
55213;DHT22;41083;52.932;6.674;2024-03-17T09:21:50;7.60;99.90
55213;DHT22;41083;52.932;6.674;2024-03-17T09:24:15;7.60;99.90
55213;DHT22;41083;52.932;6.674;2024-03-17T09:26:41;7.60;99.90
55213;DHT22;41083;52.932;6.674;2024-03-17T09:29:07;7.70;99.90
55213;DHT22;41083;52.932;6.674;2024-03-17T09:31:32;7.70;99.90
55213;DHT22;41083;52.932;6.674;2024-03-17T09:34:01;7.70;99.90
55213;DHT22;41083;52.932;6.674;2024-03-17T09:36:27;7.80;99.90
55213;DHT22;41083;52.932;6.674;2024-03-17T09:38:52;7.80;99.90
55213;DHT22;41083;52.932;6.674;2024-03-17T09:41:23;7.90;99.90
55213;DHT22;41083;52.932;6.674;2024-03-17T09:43:53;8.00;99.90
55213;DHT22;41083;52.932;6.674;2024-03-17T09:46:19;8.00;99.90
55213;DHT22;41083;52.932;6.674;2024-03-17T09:48:45;8.00;99.90
55213;DHT22;41083;52.932;6.674;2024-03-17T09:51:18;8.10;99.90
55213;DHT22;41083;52.932;6.674;2024-03-17T09:53:45;8.20;99.90
55213;DHT22;41083;52.932;6.674;2024-03-17T09:56:13;8.20;99.90
55213;DHT22;41083;52.932;6.674;2024-03-17T09:58:40;8.30;99.90
55213;DHT22;41083;52.932;6.674;2024-03-17T10:01:06;8.40;99.90
55213;DHT22;41083;52.932;6.674;2024-03-17T10:03:51;8.40;99.90
55213;DHT22;41083;52.932;6.674;2024-03-17T10:06:22;8.50;99.90
55213;DHT22;41083;52.932;6.674;2024-03-17T10:08:48;8.50;99.90
55213;DHT22;41083;52.932;6.674;2024-03-17T10:11:16;8.60;99.90
55213;DHT22;41083;52.932;6.674;2024-03-17T10:13:43;8.70;99.90
55213;DHT22;41083;52.932;6.674;2024-03-17T10:16:23;8.70;99.90
55213;DHT22;41083;52.932;6.674;2024-03-17T10:18:50;8.80;99.90
55213;DHT22;41083;52.932;6.674;2024-03-17T10:21:26;8.80;99.90
55213;DHT22;41083;52.932;6.674;2024-03-17T10:24:21;8.90;99.90
55213;DHT22;41083;52.932;6.674;2024-03-17T10:26:49;8.90;99.90
55213;DHT22;41083;52.932;6.674;2024-03-17T10:29:33;8.90;99.90
55213;DHT22;41083;52.932;6.674;2024-03-17T10:32:15;9.00;99.90
55213;DHT22;41083;52.932;6.674;2024-03-17T10:34:44;9.00;99.90
55213;DHT22;41083;52.932;6.674;2024-03-17T10:37:10;9.10;99.90
55213;DHT22;41083;52.932;6.674;2024-03-17T10:39:40;9.10;99.90
55213;DHT22;41083;52.932;6.674;2024-03-17T10:42:07;9.10;99.90
55213;DHT22;41083;52.932;6.674;2024-03-17T10:44:41;9.20;99.90
55213;DHT22;41083;52.932;6.674;2024-03-17T10:47:22;9.20;99.90
55213;DHT22;41083;52.932;6.674;2024-03-17T10:49:50;9.10;99.90
55213;DHT22;41083;52.932;6.674;2024-03-17T10:52:17;9.20;99.90
55213;DHT22;41083;52.932;6.674;2024-03-17T10:54:51;9.20;99.90
55213;DHT22;41083;52.932;6.674;2024-03-17T11:00:03;9.20;99.90
55213;DHT22;41083;52.932;6.674;2024-03-17T11:02:34;9.20;99.90
55213;DHT22;41083;52.932;6.674;2024-03-17T11:07:30;9.30;99.90
55213;DHT22;41083;52.932;6.674;2024-03-17T11:09:57;9.30;99.90
55213;DHT22;41083;52.932;6.674;2024-03-17T11:20:55;9.30;99.90
55213;DHT22;41083;52.932;6.674;2024-03-17T11:23:28;9.40;99.90
55213;DHT22;41083;52.932;6.674;2024-03-17T11:25:55;9.40;99.90
55213;DHT22;41083;52.932;6.674;2024-03-17T11:31:44;9.40;99.90
55213;DHT22;41083;52.932;6.674;2024-03-17T11:34:31;9.50;99.90
55213;DHT22;41083;52.932;6.674;2024-03-17T11:36:58;9.50;99.90
55213;DHT22;41083;52.932;6.674;2024-03-17T11:39:53;9.50;99.90
55213;DHT22;41083;52.932;6.674;2024-03-17T11:42:22;9.50;99.90
55213;DHT22;41083;52.932;6.674;2024-03-17T11:45:03;9.60;99.90
55213;DHT22;41083;52.932;6.674;2024-03-17T11:47:36;9.60;99.90
55213;DHT22;41083;52.932;6.674;2024-03-17T11:50:07;9.60;99.90
55213;DHT22;41083;52.932;6.674;2024-03-17T11:52:35;9.70;99.90
55213;DHT22;41083;52.932;6.674;2024-03-17T11:55:01;9.70;99.90
55213;DHT22;41083;52.932;6.674;2024-03-17T11:57:27;9.70;99.90
55213;DHT22;41083;52.932;6.674;2024-03-17T11:59:55;9.70;99.90
55213;DHT22;41083;52.932;6.674;2024-03-17T12:04:48;9.80;99.90
55213;DHT22;41083;52.932;6.674;2024-03-17T12:07:16;9.80;99.90
55213;DHT22;41083;52.932;6.674;2024-03-17T12:09:43;9.80;99.90
55213;DHT22;41083;52.932;6.674;2024-03-17T12:12:19;9.90;99.90
55213;DHT22;41083;52.932;6.674;2024-03-17T12:14:45;9.90;99.90
55213;DHT22;41083;52.932;6.674;2024-03-17T12:17:13;9.90;99.90
55213;DHT22;41083;52.932;6.674;2024-03-17T12:19:44;9.90;99.90
55213;DHT22;41083;52.932;6.674;2024-03-17T12:24:45;9.90;99.90
55213;DHT22;41083;52.932;6.674;2024-03-17T12:27:17;10.00;99.90
55213;DHT22;41083;52.932;6.674;2024-03-17T12:29:43;10.00;99.90
55213;DHT22;41083;52.932;6.674;2024-03-17T12:34:37;10.00;99.90
55213;DHT22;41083;52.932;6.674;2024-03-17T12:37:03;10.00;99.90
55213;DHT22;41083;52.932;6.674;2024-03-17T12:39:31;10.00;99.90
55213;DHT22;41083;52.932;6.674;2024-03-17T12:42:07;10.10;99.90
55213;DHT22;41083;52.932;6.674;2024-03-17T12:44:35;10.10;99.90
55213;DHT22;41083;52.932;6.674;2024-03-17T12:47:04;10.10;99.90
55213;DHT22;41083;52.932;6.674;2024-03-17T12:49:33;10.20;99.90
55213;DHT22;41083;52.932;6.674;2024-03-17T12:52:01;10.20;99.90
55213;DHT22;41083;52.932;6.674;2024-03-17T12:54:28;10.20;99.90
55213;DHT22;41083;52.932;6.674;2024-03-17T12:57:04;10.20;99.90
55213;DHT22;41083;52.932;6.674;2024-03-17T12:59:49;10.20;99.90
55213;DHT22;41083;52.932;6.674;2024-03-17T13:02:33;10.20;99.90
55213;DHT22;41083;52.932;6.674;2024-03-17T13:05:17;10.30;99.90
55213;DHT22;41083;52.932;6.674;2024-03-17T13:07:44;10.20;99.90
55213;DHT22;41083;52.932;6.674;2024-03-17T13:10:12;10.30;99.90
55213;DHT22;41083;52.932;6.674;2024-03-17T13:12:38;10.30;99.90
55213;DHT22;41083;52.932;6.674;2024-03-17T13:15:05;10.30;99.90
55213;DHT22;41083;52.932;6.674;2024-03-17T13:17:31;10.30;99.90
55213;DHT22;41083;52.932;6.674;2024-03-17T13:20:00;10.30;99.90
55213;DHT22;41083;52.932;6.674;2024-03-17T13:22:26;10.30;99.90
55213;DHT22;41083;52.932;6.674;2024-03-17T13:24:51;10.40;99.90
55213;DHT22;41083;52.932;6.674;2024-03-17T13:27:17;10.40;99.90
55213;DHT22;41083;52.932;6.674;2024-03-17T13:29:47;10.40;99.90
55213;DHT22;41083;52.932;6.674;2024-03-17T13:32:13;10.40;99.90
55213;DHT22;41083;52.932;6.674;2024-03-17T13:34:38;10.40;99.90
55213;DHT22;41083;52.932;6.674;2024-03-17T13:37:04;10.50;99.90
55213;DHT22;41083;52.932;6.674;2024-03-17T13:39:30;10.50;99.90
55213;DHT22;41083;52.932;6.674;2024-03-17T13:41:57;10.50;99.90
55213;DHT22;41083;52.932;6.674;2024-03-17T13:44:31;10.50;99.90
55213;DHT22;41083;52.932;6.674;2024-03-17T13:46:58;10.50;99.90
55213;DHT22;41083;52.932;6.674;2024-03-17T13:49:24;10.50;99.90
55213;DHT22;41083;52.932;6.674;2024-03-17T13:51:52;10.50;99.90
55213;DHT22;41083;52.932;6.674;2024-03-17T13:54:18;10.50;99.90
55213;DHT22;41083;52.932;6.674;2024-03-17T13:56:47;10.50;99.90
55213;DHT22;41083;52.932;6.674;2024-03-17T13:59:14;10.50;99.90
55213;DHT22;41083;52.932;6.674;2024-03-17T14:01:40;10.50;99.90
55213;DHT22;41083;52.932;6.674;2024-03-17T14:04:13;10.50;99.90
55213;DHT22;41083;52.932;6.674;2024-03-17T14:06:39;10.50;99.90
55213;DHT22;41083;52.932;6.674;2024-03-17T14:09:05;10.50;99.90
55213;DHT22;41083;52.932;6.674;2024-03-17T14:11:34;10.60;99.90
55213;DHT22;41083;52.932;6.674;2024-03-17T14:14:00;10.50;99.90
55213;DHT22;41083;52.932;6.674;2024-03-17T14:16:26;10.50;99.90
55213;DHT22;41083;52.932;6.674;2024-03-17T14:18:51;10.50;99.90
55213;DHT22;41083;52.932;6.674;2024-03-17T14:21:17;10.60;99.90
55213;DHT22;41083;52.932;6.674;2024-03-17T14:23:42;10.50;99.90
55213;DHT22;41083;52.932;6.674;2024-03-17T14:26:10;10.50;99.90
55213;DHT22;41083;52.932;6.674;2024-03-17T14:28:36;10.50;99.90
55213;DHT22;41083;52.932;6.674;2024-03-17T14:31:02;10.50;99.90
55213;DHT22;41083;52.932;6.674;2024-03-17T14:33:28;10.50;99.90
55213;DHT22;41083;52.932;6.674;2024-03-17T14:35:57;10.50;99.90
55213;DHT22;41083;52.932;6.674;2024-03-17T14:38:23;10.50;99.90
55213;DHT22;41083;52.932;6.674;2024-03-17T14:40:51;10.50;99.90
55213;DHT22;41083;52.932;6.674;2024-03-17T14:43:17;10.50;99.90
55213;DHT22;41083;52.932;6.674;2024-03-17T14:45:43;10.50;99.90
55213;DHT22;41083;52.932;6.674;2024-03-17T14:48:08;10.50;99.90
55213;DHT22;41083;52.932;6.674;2024-03-17T14:50:39;10.50;99.90
55213;DHT22;41083;52.932;6.674;2024-03-17T14:53:05;10.50;99.90
55213;DHT22;41083;52.932;6.674;2024-03-17T14:55:31;10.60;99.90
55213;DHT22;41083;52.932;6.674;2024-03-17T14:57:56;10.50;99.90
55213;DHT22;41083;52.932;6.674;2024-03-17T15:00:22;10.50;99.90
55213;DHT22;41083;52.932;6.674;2024-03-17T15:02:51;10.50;99.90
55213;DHT22;41083;52.932;6.674;2024-03-17T15:05:17;10.50;99.90
55213;DHT22;41083;52.932;6.674;2024-03-17T15:07:44;10.50;99.90
55213;DHT22;41083;52.932;6.674;2024-03-17T15:10:10;10.50;99.90
55213;DHT22;41083;52.932;6.674;2024-03-17T15:12:37;10.50;99.90
55213;DHT22;41083;52.932;6.674;2024-03-17T15:15:06;10.50;99.90
55213;DHT22;41083;52.932;6.674;2024-03-17T15:17:34;10.50;99.90
55213;DHT22;41083;52.932;6.674;2024-03-17T15:20:00;10.50;99.90
55213;DHT22;41083;52.932;6.674;2024-03-17T15:22:26;10.50;99.90
55213;DHT22;41083;52.932;6.674;2024-03-17T15:24:52;10.50;99.90
55213;DHT22;41083;52.932;6.674;2024-03-17T15:27:18;10.50;99.90
55213;DHT22;41083;52.932;6.674;2024-03-17T15:29:44;10.50;99.90
55213;DHT22;41083;52.932;6.674;2024-03-17T15:32:10;10.50;99.90
55213;DHT22;41083;52.932;6.674;2024-03-17T15:34:39;10.50;99.90
55213;DHT22;41083;52.932;6.674;2024-03-17T15:37:05;10.50;99.90
55213;DHT22;41083;52.932;6.674;2024-03-17T15:39:31;10.50;99.90
55213;DHT22;41083;52.932;6.674;2024-03-17T15:41:56;10.50;99.90
55213;DHT22;41083;52.932;6.674;2024-03-17T15:44:23;10.50;99.90
55213;DHT22;41083;52.932;6.674;2024-03-17T15:46:48;10.50;99.90
55213;DHT22;41083;52.932;6.674;2024-03-17T15:49:17;10.50;99.90
55213;DHT22;41083;52.932;6.674;2024-03-17T15:51:43;10.50;99.90
55213;DHT22;41083;52.932;6.674;2024-03-17T15:54:08;10.50;99.90
55213;DHT22;41083;52.932;6.674;2024-03-17T15:56:34;10.50;99.90
55213;DHT22;41083;52.932;6.674;2024-03-17T15:59:00;10.50;99.90
55213;DHT22;41083;52.932;6.674;2024-03-17T16:01:27;10.50;99.90
55213;DHT22;41083;52.932;6.674;2024-03-17T16:03:53;10.50;99.90
55213;DHT22;41083;52.932;6.674;2024-03-17T16:06:19;10.50;99.90
55213;DHT22;41083;52.932;6.674;2024-03-17T16:08:48;10.50;99.90